Time;durP1;ratioP1;P1;durP2;ratioP2;P2;SDS_P1;SDS_P2;PMS_P1;PMS_P2;Temp;Humidity;BMP_temperature;BMP_pressure;BME280_temperature;BME280_humidity;BME280_pressure;Samples;Min_cycle;Max_cycle;Signal;HPM_P1;HPM_P2
2022/10/01 00:00:12;;;;;;;0.73;0.73;;;6.10;99.90;;;;;;5051280;28;20172;-73
2022/10/01 00:02:38;;;;;;;0.73;0.73;;;6.00;99.90;;;;;;5051135;28;20206;-73
2022/10/01 00:05:05;;;;;;;0.70;0.70;;;6.00;99.90;;;;;;5051676;28;20171;-74
2022/10/01 00:07:37;;;;;;;0.80;0.80;;;5.90;99.90;;;;;;5050524;28;20266;-74
2022/10/01 00:10:04;;;;;;;0.70;0.70;;;5.80;99.90;;;;;;5051058;28;20658;-74
2022/10/01 00:12:29;;;;;;;0.70;0.70;;;5.70;99.90;;;;;;5051218;28;20179;-74
2022/10/01 00:14:55;;;;;;;0.80;0.80;;;5.70;99.90;;;;;;5051530;28;20647;-73
2022/10/01 00:17:20;;;;;;;0.73;0.73;;;5.60;99.90;;;;;;5054809;28;20189;-73
2022/10/01 00:19:46;;;;;;;0.70;0.70;;;5.70;99.90;;;;;;5054886;28;20651;-74
2022/10/01 00:22:11;;;;;;;0.70;0.70;;;5.70;99.90;;;;;;5055021;28;20206;-74
2022/10/01 00:24:37;;;;;;;0.80;0.80;;;5.80;99.90;;;;;;5054894;28;20251;-73
2022/10/01 00:27:03;;;;;;;0.60;0.60;;;5.90;99.90;;;;;;5054951;28;20175;-75
2022/10/01 00:29:28;;;;;;;0.70;0.70;;;5.90;99.90;;;;;;5054191;28;20195;-74
2022/10/01 00:31:54;;;;;;;0.60;0.60;;;6.00;99.90;;;;;;5054536;28;20176;-74
2022/10/01 00:34:19;;;;;;;0.80;0.80;;;5.90;99.90;;;;;;5054861;28;20579;-74
2022/10/01 00:36:45;;;;;;;0.70;0.70;;;5.90;99.90;;;;;;5054876;28;20171;-74
2022/10/01 00:39:11;;;;;;;0.60;0.60;;;6.00;99.90;;;;;;5054005;28;20215;-74
2022/10/01 00:41:37;;;;;;;0.70;0.70;;;6.10;99.90;;;;;;5054861;28;20528;-74
2022/10/01 00:44:26;;;;;;;0.70;0.70;;;6.10;99.90;;;;;;5054447;28;20306;-74
2022/10/01 00:46:53;;;;;;;0.80;0.80;;;5.90;99.90;;;;;;5054463;28;20167;-75
2022/10/01 00:49:23;;;;;;;0.60;0.60;;;5.80;99.90;;;;;;5053943;28;20672;-74
2022/10/01 00:51:54;;;;;;;0.67;0.67;;;5.80;99.90;;;;;;5054385;28;20179;-72
2022/10/01 00:54:35;;;;;;;0.60;0.60;;;5.80;99.90;;;;;;5054455;28;20174;-71
2022/10/01 00:57:02;;;;;;;0.80;0.80;;;5.70;99.90;;;;;;5054314;28;20187;-72
2022/10/01 00:59:29;;;;;;;0.70;0.70;;;5.70;99.90;;;;;;5053856;28;20199;-72
2022/10/01 01:01:55;;;;;;;0.70;0.70;;;5.60;99.90;;;;;;5054162;28;20224;-72
2022/10/01 01:04:20;;;;;;;0.70;0.70;;;5.50;99.90;;;;;;5054245;28;20266;-72
2022/10/01 01:06:56;;;;;;;0.60;0.60;;;5.50;99.90;;;;;;5054128;28;20175;-71
2022/10/01 01:09:25;;;;;;;0.80;0.80;;;5.50;99.90;;;;;;5053515;28;20265;-71
2022/10/01 01:12:01;;;;;;;0.80;0.80;;;5.50;99.90;;;;;;5053941;28;20702;-71
2022/10/01 01:14:36;;;;;;;0.63;0.63;;;5.50;99.90;;;;;;5053738;28;20194;-71
2022/10/01 01:17:08;;;;;;;0.63;0.63;;;5.50;99.90;;;;;;5053922;28;20178;-73
2022/10/01 01:20:22;;;;;;;0.80;0.80;;;5.50;99.90;;;;;;5053142;28;20706;-72
2022/10/01 01:23:03;;;;;;;0.67;0.67;;;5.40;99.90;;;;;;5035591;28;20223;-71
2022/10/01 01:26:00;;;;;;;0.70;0.70;;;5.40;99.90;;;;;;5054197;28;20195;-71
2022/10/01 01:28:30;;;;;;;0.60;0.60;;;5.40;99.90;;;;;;5053124;28;20195;-71
2022/10/01 01:31:01;;;;;;;0.60;0.60;;;5.40;99.90;;;;;;5053623;28;20682;-71
2022/10/01 01:33:29;;;;;;;0.60;0.60;;;5.30;99.90;;;;;;5053625;28;20635;-71
2022/10/01 01:36:00;;;;;;;0.70;0.70;;;5.30;99.90;;;;;;5053431;28;20191;-70
2022/10/01 01:38:36;;;;;;;0.60;0.60;;;5.20;99.90;;;;;;5052955;28;20567;-71
2022/10/01 01:41:04;;;;;;;0.60;0.60;;;5.30;99.90;;;;;;5053674;28;20187;-71
2022/10/01 01:43:34;;;;;;;0.70;0.70;;;5.30;99.90;;;;;;5053260;28;20211;-72
2022/10/01 01:46:03;;;;;;;0.60;0.60;;;5.30;99.90;;;;;;5053694;28;20587;-72
2022/10/01 01:48:31;;;;;;;0.70;0.70;;;5.30;99.90;;;;;;5052806;28;20202;-72
2022/10/01 01:51:03;;;;;;;0.70;0.70;;;5.40;99.90;;;;;;5053184;28;20262;-72
2022/10/01 01:53:31;;;;;;;0.70;0.70;;;5.40;99.90;;;;;;5053156;28;20182;-71
2022/10/01 01:55:59;;;;;;;0.80;0.80;;;5.40;99.90;;;;;;5053248;28;20190;-72
2022/10/01 01:58:25;;;;;;;0.77;0.77;;;5.40;99.90;;;;;;5052517;28;20567;-72
2022/10/01 02:00:51;;;;;;;0.80;0.80;;;5.40;99.90;;;;;;5053126;28;20167;-72
2022/10/01 02:03:20;;;;;;;0.80;0.80;;;5.50;99.90;;;;;;5052978;28;20309;-72
2022/10/01 02:06:06;;;;;;;0.80;0.80;;;5.50;99.90;;;;;;5052902;28;20175;-72
2022/10/01 02:08:50;;;;;;;0.80;0.80;;;5.40;99.90;;;;;;5034954;28;20264;-72
2022/10/01 02:11:24;;;;;;;0.60;0.60;;;5.50;99.90;;;;;;5052520;28;20599;-72
2022/10/01 02:13:49;;;;;;;0.70;0.70;;;5.40;99.90;;;;;;5052770;28;20285;-72
2022/10/01 02:16:50;;;;;;;0.70;0.70;;;5.40;99.90;;;;;;5052687;28;20266;-72
2022/10/01 02:19:40;;;;;;;0.67;0.67;;;5.50;99.90;;;;;;5047020;28;20257;-72
2022/10/01 02:22:12;;;;;;;0.73;0.73;;;5.50;99.90;;;;;;5052732;28;20187;-72
2022/10/01 02:24:37;;;;;;;0.77;0.77;;;5.50;99.90;;;;;;5052867;28;20179;-71
2022/10/01 02:27:10;;;;;;;0.60;0.60;;;5.50;99.90;;;;;;5052986;28;20179;-72
2022/10/01 02:29:37;;;;;;;0.70;0.70;;;5.40;99.90;;;;;;5052349;28;20245;-72
2022/10/01 02:32:04;;;;;;;0.67;0.67;;;5.30;99.90;;;;;;5052608;28;20167;-72
2022/10/01 02:34:30;;;;;;;0.70;0.70;;;5.20;99.90;;;;;;5052404;28;20171;-72
2022/10/01 02:36:59;;;;;;;0.80;0.80;;;5.20;99.90;;;;;;5052364;28;20175;-72
2022/10/01 02:39:28;;;;;;;0.60;0.60;;;5.20;99.90;;;;;;5051370;28;20245;-71
2022/10/01 02:41:55;;;;;;;0.60;0.60;;;5.20;99.90;;;;;;5052277;28;20186;-72
2022/10/01 02:44:29;;;;;;;0.70;0.70;;;5.30;99.90;;;;;;5052250;28;20279;-72
2022/10/01 02:47:06;;;;;;;0.80;0.80;;;5.40;99.90;;;;;;5052334;28;20172;-72
2022/10/01 02:49:33;;;;;;;0.70;0.70;;;5.50;99.90;;;;;;5051532;28;20613;-72
2022/10/01 02:52:16;;;;;;;0.70;0.70;;;5.50;99.90;;;;;;5052317;28;20175;-72
2022/10/01 02:54:53;;;;;;;0.70;0.70;;;5.60;99.90;;;;;;5051998;28;20175;-72
2022/10/01 02:57:22;;;;;;;0.70;0.70;;;5.60;99.90;;;;;;5051896;28;20171;-72
2022/10/01 02:59:48;;;;;;;0.80;0.80;;;5.60;99.90;;;;;;5051706;28;20205;-72
2022/10/01 03:02:14;;;;;;;0.70;0.70;;;5.60;99.90;;;;;;5052038;28;20206;-72
2022/10/01 03:04:40;;;;;;;0.70;0.70;;;5.60;99.90;;;;;;5052041;28;20183;-72
2022/10/01 03:07:05;;;;;;;0.70;0.70;;;5.70;99.90;;;;;;5051960;28;20171;-72
2022/10/01 03:09:33;;;;;;;0.70;0.70;;;5.60;99.90;;;;;;5051224;28;20195;-71
2022/10/01 03:11:59;;;;;;;0.70;0.70;;;5.70;99.90;;;;;;5051727;28;20191;-72
2022/10/01 03:14:25;;;;;;;0.60;0.60;;;5.70;99.90;;;;;;5121495;22;20244;-83
2022/10/01 03:16:51;;;;;;;0.80;0.80;;;5.80;99.90;;;;;;5118042;28;20187;-82
2022/10/01 03:19:17;;;;;;;0.60;0.60;;;5.70;99.90;;;;;;5118177;28;20722;-83
2022/10/01 03:21:43;;;;;;;0.70;0.70;;;5.60;99.90;;;;;;5118459;28;20181;-83
2022/10/01 03:24:08;;;;;;;0.60;0.60;;;5.60;99.90;;;;;;5117988;28;20549;-82
2022/10/01 03:26:35;;;;;;;0.77;0.77;;;5.70;99.90;;;;;;5119539;28;20169;-82
2022/10/01 03:29:01;;;;;;;0.70;0.70;;;5.70;99.90;;;;;;5119132;28;20544;-80
2022/10/01 03:31:26;;;;;;;0.70;0.70;;;5.70;99.90;;;;;;5118977;28;20184;-80
2022/10/01 03:33:52;;;;;;;0.73;0.73;;;5.50;99.90;;;;;;5119777;28;20200;-79
2022/10/01 03:36:18;;;;;;;0.70;0.70;;;5.50;99.90;;;;;;5119665;28;20256;-79
2022/10/01 03:38:43;;;;;;;0.80;0.80;;;5.50;99.90;;;;;;5119105;28;20564;-80
2022/10/01 03:41:09;;;;;;;0.70;0.70;;;5.50;99.90;;;;;;5119416;28;20177;-79
2022/10/01 03:43:35;;;;;;;0.70;0.70;;;5.50;99.90;;;;;;5118881;28;20219;-79
2022/10/01 03:46:03;;;;;;;0.80;0.80;;;5.50;99.90;;;;;;5119834;28;20237;-79
2022/10/01 03:48:29;;;;;;;0.60;0.60;;;5.50;99.90;;;;;;5118380;28;20208;-79
2022/10/01 03:50:56;;;;;;;0.70;0.70;;;5.50;99.90;;;;;;5119367;28;20177;-79
2022/10/01 03:53:23;;;;;;;0.70;0.70;;;5.50;99.90;;;;;;5123045;28;20173;-79
2022/10/01 03:55:49;;;;;;;0.60;0.60;;;5.60;99.90;;;;;;5122472;28;20177;-79
2022/10/01 03:58:15;;;;;;;0.80;0.80;;;5.50;99.90;;;;;;5122619;28;20197;-79
2022/10/01 04:00:43;;;;;;;0.70;0.70;;;5.50;99.90;;;;;;5122992;28;20184;-79
2022/10/01 04:03:08;;;;;;;0.70;0.70;;;5.60;99.90;;;;;;5122346;28;20585;-79
2022/10/01 04:05:34;;;;;;;0.70;0.70;;;5.60;99.90;;;;;;5123103;28;20181;-79
2022/10/01 04:07:59;;;;;;;0.70;0.70;;;5.60;99.90;;;;;;5122398;28;20264;-80
2022/10/01 04:10:25;;;;;;;0.60;0.60;;;5.60;99.90;;;;;;5122796;28;20181;-80
2022/10/01 04:12:54;;;;;;;0.60;0.60;;;5.50;99.90;;;;;;5123220;28;20184;-79
2022/10/01 04:15:20;;;;;;;0.80;0.80;;;5.50;99.90;;;;;;5124729;28;20181;-79
2022/10/01 04:17:47;;;;;;;0.70;0.70;;;5.50;99.90;;;;;;5124285;28;20201;-80
2022/10/01 04:20:12;;;;;;;0.60;0.60;;;5.40;99.90;;;;;;5123398;28;20186;-80
2022/10/01 04:22:41;;;;;;;0.60;0.60;;;5.50;99.90;;;;;;5123311;28;20644;-80
2022/10/01 04:25:09;;;;;;;0.77;0.77;;;5.50;99.90;;;;;;5123321;28;20645;-80
2022/10/01 04:27:35;;;;;;;0.90;0.90;;;5.40;99.90;;;;;;5123477;28;20593;-80
2022/10/01 04:30:01;;;;;;;0.80;0.80;;;5.40;99.90;;;;;;5124691;28;20184;-80
2022/10/01 04:32:27;;;;;;;0.73;0.73;;;5.50;99.90;;;;;;5123503;28;20536;-80
2022/10/01 04:34:52;;;;;;;0.80;0.80;;;5.50;99.90;;;;;;5124799;28;20195;-80
2022/10/01 04:37:22;;;;;;;0.77;0.77;;;5.50;99.90;;;;;;5122972;28;20172;-80
2022/10/01 04:39:48;;;;;;;0.80;0.80;;;5.70;99.90;;;;;;5123808;28;20212;-81
2022/10/01 04:42:14;;;;;;;0.70;0.70;;;5.70;99.90;;;;;;5123966;28;20622;-79
2022/10/01 04:44:40;;;;;;;0.80;0.80;;;5.70;99.90;;;;;;5122861;28;20638;-80
2022/10/01 04:47:07;;;;;;;0.67;0.67;;;5.80;99.90;;;;;;5122657;28;20184;-80
2022/10/01 04:49:33;;;;;;;0.70;0.70;;;5.90;99.90;;;;;;5122622;28;20204;-82
2022/10/01 04:51:59;;;;;;;0.60;0.60;;;5.90;99.90;;;;;;5124806;28;20649;-80
2022/10/01 04:54:24;;;;;;;0.70;0.70;;;6.00;99.90;;;;;;5125704;27;20644;-80
2022/10/01 04:56:50;;;;;;;0.70;0.70;;;6.10;99.90;;;;;;5127853;28;20172;-80
2022/10/01 04:59:16;;;;;;;0.80;0.80;;;6.20;99.90;;;;;;5136605;28;20204;-80
2022/10/01 05:01:41;;;;;;;0.80;0.80;;;6.40;99.90;;;;;;5137099;28;20169;-80
2022/10/01 05:04:07;;;;;;;0.60;0.60;;;6.30;99.90;;;;;;5136753;28;20237;-80
2022/10/01 05:06:33;;;;;;;0.60;0.60;;;6.20;99.90;;;;;;5128526;28;20226;-82
2022/10/01 05:08:59;;;;;;;0.60;0.60;;;6.20;99.90;;;;;;5126670;28;20197;-81
2022/10/01 05:11:25;;;;;;;0.80;0.80;;;6.30;99.90;;;;;;5128361;28;20173;-79
2022/10/01 05:13:50;;;;;;;0.80;0.80;;;6.40;99.90;;;;;;5127002;28;20188;-81
2022/10/01 05:16:16;;;;;;;0.63;0.63;;;6.70;99.90;;;;;;5126616;28;20174;-82
2022/10/01 05:18:42;;;;;;;0.73;0.73;;;6.90;99.90;;;;;;5125432;28;20662;-81
2022/10/01 05:21:14;;;;;;;0.70;0.70;;;6.90;99.90;;;;;;5126559;28;20641;-81
2022/10/01 05:23:40;;;;;;;0.70;0.70;;;6.90;99.90;;;;;;5126949;28;20213;-81
2022/10/01 05:26:06;;;;;;;0.70;0.70;;;6.80;99.90;;;;;;5126380;28;20180;-81
2022/10/01 05:28:32;;;;;;;0.70;0.70;;;6.80;99.90;;;;;;5126556;28;20197;-81
2022/10/01 05:30:59;;;;;;;0.80;0.80;;;6.80;99.90;;;;;;5123984;28;20177;-81
2022/10/01 05:33:25;;;;;;;0.60;0.60;;;7.10;99.90;;;;;;5126578;28;20208;-79
2022/10/01 05:35:52;;;;;;;0.80;0.80;;;7.20;99.90;;;;;;5126506;28;20188;-80
2022/10/01 05:38:18;;;;;;;0.77;0.77;;;7.30;99.90;;;;;;5129784;28;20205;-79
2022/10/01 05:40:46;;;;;;;0.80;0.80;;;7.30;99.90;;;;;;5133978;28;20188;-79
2022/10/01 05:43:12;;;;;;;0.80;0.80;;;7.30;99.90;;;;;;5132868;28;20219;-81
2022/10/01 05:45:38;;;;;;;0.60;0.60;;;7.40;99.90;;;;;;5131059;28;20181;-81
2022/10/01 05:48:06;;;;;;;0.63;0.63;;;7.30;99.90;;;;;;5129567;28;20200;-80
2022/10/01 05:50:34;;;;;;;0.80;0.80;;;7.50;99.90;;;;;;5130689;28;20210;-80
2022/10/01 05:53:01;;;;;;;0.70;0.70;;;7.80;99.90;;;;;;5130673;28;20177;-79
2022/10/01 05:55:33;;;;;;;0.70;0.70;;;7.80;99.90;;;;;;5130300;28;20550;-80
2022/10/01 05:58:01;;;;;;;0.70;0.70;;;7.70;99.90;;;;;;5133313;28;20193;-79
2022/10/01 06:00:28;;;;;;;0.63;0.63;;;7.90;99.90;;;;;;5136927;28;20165;-80
2022/10/01 06:02:54;;;;;;;0.70;0.70;;;8.00;99.90;;;;;;5135947;28;20208;-79
2022/10/01 06:05:21;;;;;;;0.70;0.70;;;8.00;99.90;;;;;;5136687;28;20168;-80
2022/10/01 06:07:47;;;;;;;0.67;0.67;;;8.10;99.90;;;;;;5136499;28;20192;-79
2022/10/01 06:10:13;;;;;;;0.67;0.67;;;8.10;99.90;;;;;;5136284;28;20187;-79
2022/10/01 06:12:39;;;;;;;0.60;0.60;;;8.10;99.90;;;;;;5128006;28;20603;-79
2022/10/01 06:15:05;;;;;;;0.70;0.70;;;8.20;99.90;;;;;;5126465;28;20196;-79
2022/10/01 06:17:31;;;;;;;0.70;0.70;;;8.20;99.90;;;;;;5126603;28;20173;-79
2022/10/01 06:19:57;;;;;;;0.70;0.70;;;8.20;99.90;;;;;;5127780;28;20177;-79
2022/10/01 06:22:22;;;;;;;0.70;0.70;;;8.20;99.90;;;;;;5127809;28;20568;-81
2022/10/01 06:24:48;;;;;;;0.67;0.67;;;8.30;99.90;;;;;;5127160;28;20607;-79
2022/10/01 06:27:13;;;;;;;0.80;0.80;;;8.00;99.90;;;;;;5124124;28;20177;-80
2022/10/01 06:29:39;;;;;;;0.67;0.67;;;8.00;99.90;;;;;;5122539;28;20181;-80
2022/10/01 06:32:06;;;;;;;0.70;0.70;;;8.10;99.90;;;;;;5122474;28;20179;-80
2022/10/01 06:34:33;;;;;;;0.70;0.70;;;8.30;99.90;;;;;;5119714;28;20248;-81
2022/10/01 06:36:58;;;;;;;0.70;0.70;;;8.50;99.90;;;;;;5118070;28;20180;-80
2022/10/01 06:39:24;;;;;;;0.63;0.63;;;8.50;99.90;;;;;;5119956;28;20188;-80
2022/10/01 06:41:49;;;;;;;0.70;0.70;;;8.50;99.90;;;;;;5120300;28;20177;-81
2022/10/01 06:44:15;;;;;;;0.60;0.60;;;8.50;99.90;;;;;;5120576;28;20268;-81
2022/10/01 06:46:40;;;;;;;0.70;0.70;;;8.40;99.90;;;;;;5120817;28;20214;-81
2022/10/01 06:49:06;;;;;;;0.60;0.60;;;8.50;99.90;;;;;;5118455;28;20235;-82
2022/10/01 06:54:26;;;;;;;0.90;0.90;;;8.50;99.90;;;;;;5081885;28;20273;-80
2022/10/01 06:56:52;;;;;;;0.70;0.70;;;8.60;99.90;;;;;;5121146;28;20635;-80
2022/10/01 06:59:17;;;;;;;0.70;0.70;;;8.60;99.90;;;;;;5121809;28;20215;-80
2022/10/01 07:01:43;;;;;;;0.70;0.70;;;8.60;99.90;;;;;;5120508;28;20585;-79
2022/10/01 07:04:08;;;;;;;0.60;0.60;;;8.60;99.90;;;;;;5122364;28;20211;-80
2022/10/01 07:06:34;;;;;;;0.70;0.70;;;8.60;99.90;;;;;;5121144;28;20264;-80
2022/10/01 07:09:00;;;;;;;0.60;0.60;;;8.60;99.90;;;;;;5121809;28;20193;-81
2022/10/01 07:11:26;;;;;;;0.60;0.60;;;8.60;99.90;;;;;;5123909;28;20181;-80
2022/10/01 07:13:51;;;;;;;0.70;0.70;;;8.60;99.90;;;;;;5128437;27;20200;-81
2022/10/01 07:16:17;;;;;;;0.63;0.63;;;8.50;99.90;;;;;;5127721;27;20641;-79
2022/10/01 07:18:42;;;;;;;0.60;0.60;;;8.50;99.90;;;;;;5119751;27;20685;-82
2022/10/01 07:21:08;;;;;;;0.70;0.70;;;8.60;99.90;;;;;;5119101;28;20162;-78
2022/10/01 07:23:34;;;;;;;0.53;0.53;;;8.60;99.90;;;;;;5119769;28;20305;-81
2022/10/01 07:25:59;;;;;;;0.60;0.60;;;8.50;99.90;;;;;;5115630;28;20223;-82
2022/10/01 07:28:26;;;;;;;0.70;0.70;;;8.50;99.90;;;;;;5115005;28;20217;-82
2022/10/01 07:31:05;;;;;;;0.70;0.70;;;8.50;99.90;;;;;;5122901;27;20259;-85
2022/10/01 07:33:31;;;;;;;0.67;0.67;;;8.50;99.90;;;;;;5125419;27;20199;-80
2022/10/01 07:36:03;;;;;;;0.70;0.70;;;8.60;99.90;;;;;;5131013;27;20177;-81
2022/10/01 07:38:29;;;;;;;0.60;0.60;;;8.60;99.90;;;;;;5123746;27;20192;-81
2022/10/01 07:40:54;;;;;;;0.50;0.50;;;8.50;99.90;;;;;;5137098;28;20631;-82
2022/10/01 07:43:20;;;;;;;0.70;0.70;;;8.50;99.90;;;;;;5127560;28;20199;-81
2022/10/01 07:45:46;;;;;;;0.70;0.70;;;8.60;99.90;;;;;;5129039;28;20210;-81
2022/10/01 07:48:13;;;;;;;0.80;0.80;;;8.60;99.90;;;;;;5129688;28;20545;-82
2022/10/01 07:50:44;;;;;;;0.50;0.50;;;8.60;99.90;;;;;;5133746;28;20404;-80
2022/10/01 07:53:10;;;;;;;0.70;0.70;;;8.60;99.90;;;;;;5134053;28;20204;-81
2022/10/01 07:55:36;;;;;;;0.60;0.60;;;8.60;99.90;;;;;;5134488;28;20236;-79
2022/10/01 07:58:02;;;;;;;0.70;0.70;;;8.80;99.90;;;;;;5134448;28;20231;-81
2022/10/01 08:00:32;;;;;;;0.60;0.60;;;8.80;99.90;;;;;;5124897;28;20202;-80
2022/10/01 08:02:58;;;;;;;0.60;0.60;;;8.90;99.90;;;;;;5117606;28;20200;-81
2022/10/01 08:05:29;;;;;;;0.60;0.60;;;8.80;99.90;;;;;;5107902;28;20268;-81
2022/10/01 08:08:05;;;;;;;0.70;0.70;;;8.80;99.90;;;;;;5101505;28;20197;-81
2022/10/01 08:10:35;;;;;;;0.67;0.67;;;8.90;99.90;;;;;;5112447;28;20173;-81
2022/10/01 08:13:23;;;;;;;0.60;0.60;;;9.10;99.90;;;;;;5126637;28;20579;-80
2022/10/01 08:15:52;;;;;;;0.70;0.70;;;9.30;99.90;;;;;;5111202;28;20262;-80
2022/10/01 08:18:18;;;;;;;0.70;0.70;;;9.40;99.90;;;;;;5121590;28;20196;-80
2022/10/01 08:20:44;;;;;;;0.70;0.70;;;9.50;99.90;;;;;;5118702;28;20181;-80
2022/10/01 08:23:13;;;;;;;0.70;0.70;;;9.50;99.90;;;;;;5117663;28;20239;-80
2022/10/01 08:25:40;;;;;;;0.70;0.70;;;9.50;99.90;;;;;;5111107;28;20185;-81
2022/10/01 08:28:06;;;;;;;0.70;0.70;;;9.50;99.90;;;;;;5119789;28;20283;-81
2022/10/01 08:30:32;;;;;;;0.70;0.70;;;9.50;99.90;;;;;;5119845;28;20177;-82
2022/10/01 08:32:59;;;;;;;0.77;0.77;;;9.60;99.90;;;;;;5115033;28;20183;-84
2022/10/01 08:35:27;;;;;;;0.70;0.70;;;9.50;99.90;;;;;;5111753;28;20179;-82
2022/10/01 08:37:55;;;;;;;0.70;0.70;;;9.70;99.90;;;;;;5115795;28;20197;-81
2022/10/01 08:40:22;;;;;;;0.60;0.60;;;9.70;99.90;;;;;;5115776;28;20264;-83
2022/10/01 08:43:05;;;;;;;0.60;0.60;;;9.70;99.90;;;;;;5115714;28;20212;-82
2022/10/01 08:45:44;;;;;;;0.70;0.70;;;9.70;99.90;;;;;;5127663;28;20169;-86
2022/10/01 08:48:15;;;;;;;0.70;0.70;;;9.80;99.90;;;;;;5135604;28;20204;-81
2022/10/01 08:50:53;;;;;;;0.77;0.77;;;9.80;99.90;;;;;;5136851;27;20267;-78
2022/10/01 08:53:32;;;;;;;0.80;0.80;;;9.80;99.90;;;;;;5141294;27;20184;-79
2022/10/01 08:56:00;;;;;;;0.63;0.63;;;9.80;99.90;;;;;;5132097;28;20184;-84
2022/10/01 08:58:33;;;;;;;0.70;0.70;;;9.80;99.90;;;;;;5129307;28;20216;-80
2022/10/01 09:00:59;;;;;;;0.60;0.60;;;9.80;99.90;;;;;;5136666;28;20221;-82
2022/10/01 09:03:29;;;;;;;0.70;0.70;;;10.00;99.90;;;;;;5136953;28;20402;-85
2022/10/01 09:06:16;;;;;;;0.80;0.80;;;9.80;99.90;;;;;;5135052;27;20184;-83
2022/10/01 09:08:59;;;;;;;0.70;0.70;;;9.90;99.90;;;;;;5133403;27;20212;-86
2022/10/01 09:11:30;;;;;;;0.80;0.80;;;9.90;99.90;;;;;;5130441;27;20192;-80
2022/10/01 09:14:10;;;;;;;0.60;0.60;;;9.90;99.90;;;;;;5127276;27;20338;-80
2022/10/01 09:16:42;;;;;;;0.70;0.70;;;10.00;99.90;;;;;;5102710;28;20178;-82
2022/10/01 09:19:19;;;;;;;0.70;0.70;;;10.00;99.90;;;;;;5112203;27;20641;-83
2022/10/01 09:21:58;;;;;;;0.70;0.70;;;10.10;99.90;;;;;;5118119;27;20177;-80
2022/10/01 09:24:41;;;;;;;0.67;0.67;;;10.20;99.90;;;;;;5121137;27;20392;-78
2022/10/01 09:27:18;;;;;;;0.60;0.60;;;10.20;99.90;;;;;;5114071;28;20656;-80
2022/10/01 09:29:52;;;;;;;0.70;0.70;;;10.20;99.90;;;;;;5115657;28;20192;-78
2022/10/01 09:32:22;;;;;;;0.77;0.77;;;10.20;99.90;;;;;;5116172;28;20176;-79
2022/10/01 09:34:52;;;;;;;0.60;0.60;;;10.30;99.90;;;;;;5114238;28;20624;-79
2022/10/01 09:37:29;;;;;;;0.70;0.70;;;10.30;99.90;;;;;;5108587;28;20704;-85
2022/10/01 09:40:11;;;;;;;0.60;0.60;;;10.30;99.90;;;;;;5115255;28;20200;-78
2022/10/01 09:42:37;;;;;;;0.60;0.60;;;10.30;99.90;;;;;;5109583;28;20577;-80
2022/10/01 09:45:04;;;;;;;0.60;0.60;;;10.30;99.90;;;;;;5117627;27;20181;-81
2022/10/01 09:47:32;;;;;;;0.60;0.60;;;10.30;99.90;;;;;;5114483;27;20273;-81
2022/10/01 09:50:02;;;;;;;0.73;0.73;;;10.30;99.90;;;;;;5116745;28;20188;-80
2022/10/01 09:52:37;;;;;;;0.60;0.60;;;10.40;99.90;;;;;;5110082;28;20245;-80
2022/10/01 09:55:34;;;;;;;0.60;0.60;;;10.50;99.90;;;;;;5109401;28;20237;-81
2022/10/01 09:58:12;;;;;;;0.60;0.60;;;10.50;99.90;;;;;;5115839;28;20196;-83
2022/10/01 10:00:39;;;;;;;0.60;0.60;;;10.60;99.90;;;;;;5109449;28;20177;-80
2022/10/01 10:03:06;;;;;;;0.70;0.70;;;10.70;99.90;;;;;;5105051;28;20228;-82
2022/10/01 10:05:46;;;;;;;0.53;0.53;;;10.70;99.90;;;;;;5116648;28;20184;-82
2022/10/01 10:08:14;;;;;;;0.70;0.70;;;10.70;99.90;;;;;;5116398;28;20270;-81
2022/10/01 10:10:50;;;;;;;0.60;0.60;;;10.70;99.90;;;;;;5119784;27;20648;-79
2022/10/01 10:13:30;;;;;;;0.67;0.67;;;10.70;99.90;;;;;;5132617;28;20283;-78
2022/10/01 10:15:57;;;;;;;0.70;0.70;;;10.70;99.90;;;;;;5131917;28;20184;-80
2022/10/01 10:18:29;;;;;;;0.67;0.67;;;10.70;99.90;;;;;;5120500;28;20225;-83
2022/10/01 10:20:58;;;;;;;0.50;0.50;;;10.70;99.90;;;;;;5110587;28;20451;-81
2022/10/01 10:23:25;;;;;;;0.60;0.60;;;10.70;99.90;;;;;;5115217;28;20231;-79
2022/10/01 10:26:03;;;;;;;0.50;0.50;;;10.70;99.90;;;;;;5116083;28;20226;-81
2022/10/01 10:28:38;;;;;;;0.60;0.60;;;10.70;99.90;;;;;;5114915;28;20196;-80
2022/10/01 10:31:09;;;;;;;0.70;0.70;;;10.70;99.90;;;;;;5115628;28;20184;-83
2022/10/01 10:33:34;;;;;;;0.80;0.80;;;10.60;99.90;;;;;;5115423;28;20184;-80
2022/10/01 10:36:03;;;;;;;0.60;0.60;;;10.70;99.90;;;;;;5115511;28;20516;-81
2022/10/01 10:38:33;;;;;;;0.70;0.70;;;10.70;99.90;;;;;;5114117;28;20230;-82
2022/10/01 10:41:00;;;;;;;0.70;0.70;;;10.80;99.90;;;;;;5102523;28;20192;-82
2022/10/01 10:43:35;;;;;;;0.63;0.63;;;10.80;99.90;;;;;;5114625;28;20563;-80
2022/10/01 10:46:02;;;;;;;0.70;0.70;;;10.80;99.90;;;;;;5113961;28;20177;-79
2022/10/01 10:48:42;;;;;;;0.70;0.70;;;10.80;99.90;;;;;;5113431;28;20220;-82
2022/10/01 10:51:08;;;;;;;0.60;0.60;;;10.80;99.90;;;;;;5112557;28;20173;-81
2022/10/01 10:53:42;;;;;;;0.53;0.53;;;10.80;99.90;;;;;;5114119;28;20222;-79
2022/10/01 10:56:21;;;;;;;0.60;0.60;;;10.80;99.90;;;;;;5113864;28;20184;-81
2022/10/01 10:58:48;;;;;;;0.70;0.70;;;10.80;99.90;;;;;;5113223;28;20206;-78
2022/10/01 11:01:18;;;;;;;0.60;0.60;;;10.90;99.90;;;;;;5113493;28;20353;-79
2022/10/01 11:03:47;;;;;;;0.50;0.50;;;11.00;99.90;;;;;;5113806;28;20229;-81
2022/10/01 11:06:17;;;;;;;0.80;0.80;;;11.10;99.90;;;;;;5113926;28;20583;-79
2022/10/01 11:08:44;;;;;;;0.60;0.60;;;11.00;99.90;;;;;;5113650;28;20196;-82
2022/10/01 11:11:33;;;;;;;0.50;0.50;;;11.10;99.90;;;;;;5113977;28;20177;-80
2022/10/01 11:14:23;;;;;;;0.77;0.77;;;11.30;99.90;;;;;;5113848;28;20613;-79
2022/10/01 11:16:52;;;;;;;0.80;0.80;;;11.30;99.90;;;;;;5127726;27;20257;-83
2022/10/01 11:19:17;;;;;;;0.60;0.60;;;11.30;99.90;;;;;;5134319;27;20203;-79
2022/10/01 11:21:56;;;;;;;0.60;0.60;;;11.30;99.90;;;;;;5134484;27;20164;-80
2022/10/01 11:24:47;;;;;;;0.70;0.70;;;11.40;99.90;;;;;;5126464;27;20220;-83
2022/10/01 11:27:18;;;;;;;0.60;0.60;;;11.40;99.90;;;;;;5120927;27;20599;-80
2022/10/01 11:29:53;;;;;;;0.60;0.60;;;11.40;99.90;;;;;;5124363;27;20275;-83
2022/10/01 11:32:48;;;;;;;0.63;0.63;;;11.30;99.90;;;;;;5125028;27;20160;-80
2022/10/01 11:35:41;;;;;;;0.60;0.60;;;11.30;99.90;;;;;;5120801;27;20670;-80
2022/10/01 11:38:18;;;;;;;0.60;0.60;;;11.30;99.90;;;;;;5121175;27;20558;-81
2022/10/01 11:41:27;;;;;;;0.70;0.70;;;11.30;99.90;;;;;;5117912;28;20603;-82
2022/10/01 11:44:15;;;;;;;0.70;0.70;;;11.30;99.90;;;;;;5102359;28;20303;-80
2022/10/01 11:46:53;;;;;;;0.50;0.50;;;11.30;99.90;;;;;;5119281;28;20187;-80
2022/10/01 11:49:37;;;;;;;0.77;0.77;;;11.30;99.90;;;;;;5097573;28;20280;-81
2022/10/01 11:52:08;;;;;;;0.50;0.50;;;11.30;99.90;;;;;;5113373;28;20173;-81
2022/10/01 11:54:37;;;;;;;0.70;0.70;;;11.30;99.90;;;;;;5113395;28;20256;-82
2022/10/01 12:00:10;;;;;;;0.60;0.60;;;11.40;99.90;;;;;;5118092;28;20321;-81
2022/10/01 12:02:38;;;;;;;0.50;0.50;;;11.40;99.90;;;;;;5123142;28;20583;-82
2022/10/01 12:05:18;;;;;;;0.60;0.60;;;11.40;99.90;;;;;;5127197;28;20171;-78
2022/10/01 12:07:55;;;;;;;0.70;0.70;;;11.50;99.90;;;;;;5126018;28;20652;-81
2022/10/01 12:10:32;;;;;;;0.70;0.70;;;11.60;99.90;;;;;;5126631;28;20168;-80
2022/10/01 12:13:06;;;;;;;0.60;0.60;;;11.60;99.90;;;;;;5131202;28;20584;-80
2022/10/01 12:15:35;;;;;;;0.60;0.60;;;11.70;99.90;;;;;;5132453;28;20187;-81
2022/10/01 12:18:35;;;;;;;0.60;0.60;;;11.80;99.90;;;;;;5132420;28;20197;-79
2022/10/01 12:21:06;;;;;;;0.70;0.70;;;11.80;99.90;;;;;;5128428;28;20177;-81
2022/10/01 12:23:41;;;;;;;0.50;0.50;;;12.00;99.90;;;;;;5131099;28;20268;-80
2022/10/01 12:26:36;;;;;;;0.57;0.57;;;12.10;99.90;;;;;;5129375;28;20307;-78
2022/10/01 12:29:25;;;;;;;0.60;0.60;;;12.20;99.90;;;;;;5126633;28;20193;-80
2022/10/01 12:32:03;;;;;;;0.60;0.60;;;12.20;99.90;;;;;;5129491;28;20178;-81
2022/10/01 12:34:42;;;;;;;0.67;0.67;;;12.30;99.90;;;;;;5129898;28;20180;-79
2022/10/01 12:37:18;;;;;;;0.50;0.50;;;12.40;99.90;;;;;;5128798;28;20225;-78
2022/10/01 12:40:09;;;;;;;0.47;0.47;;;12.40;99.90;;;;;;5131006;28;20212;-80
2022/10/01 12:42:58;;;;;;;0.57;0.57;;;12.50;99.90;;;;;;5135527;28;20212;-80
2022/10/01 12:45:36;;;;;;;0.60;0.60;;;12.60;95.00;;;;;;5137638;28;20185;-78
2022/10/01 12:48:14;;;;;;;0.60;0.60;;;12.70;99.90;;;;;;5137737;28;20204;-79
2022/10/01 12:50:43;;;;;;;0.60;0.60;;;12.70;99.90;;;;;;5132116;28;20188;-80
2022/10/01 12:53:44;;;;;;;0.50;0.50;;;12.70;57.50;;;;;;5128790;28;20181;-82
2022/10/01 12:56:21;;;;;;;0.40;0.40;;;12.80;85.20;;;;;;5113791;28;20184;-80
2022/10/01 12:59:24;;;;;;;0.70;0.70;;;12.80;48.50;;;;;;5124489;28;20197;-81
2022/10/01 13:02:08;;;;;;;0.40;0.40;;;12.90;66.20;;;;;;5130087;28;20172;-80
2022/10/01 13:04:49;;;;;;;0.40;0.40;;;12.90;50.20;;;;;;5130929;28;20217;-79
2022/10/01 13:07:45;;;;;;;0.50;0.50;;;12.90;41.90;;;;;;5122338;28;20216;-79
2022/10/01 13:10:31;;;;;;;0.50;0.50;;;13.00;14.70;;;;;;5107813;28;20188;-80
2022/10/01 13:13:07;;;;;;;0.50;0.50;;;13.00;1.00;;;;;;5109389;28;20208;-81
2022/10/01 13:15:39;;;;;;;0.40;0.40;;;13.10;8.50;;;;;;5107787;28;20727;-80
2022/10/01 13:18:26;;;;;;;0.60;0.60;;;13.20;1.00;;;;;;5107408;28;20190;-78
2022/10/01 13:21:10;;;;;;;0.60;0.60;;;13.40;1.00;;;;;;5128178;28;20173;-79